Warehouse Point, Connecticut
Current Conditions -  °F | °C
As of 3:13 AM on Monday 24 Nov 2014 (Local Time) from KBDL Reporting Station
Light Rain Light Rain  
Wind Chill: 39°   Ceiling: 1900
Heat Index: 43°   Visibility: 5mi
Dew Point: 35°   Wind: 6mph
Humidity: 74%   Direction: 10°N
Pressure: 29.93"   Gusts: NA
Location:  41.9062°N, 72.5958°W
Report Text: KBDL 240813Z 01005KT 5SM -RA BKN019 BKN028 OVC035 06/02 A2993 RMK AO2 RAB0752 P0000 T00610017
Loading
Personal Weather Stations






























Interactive Weather Map New forecast layout! Learn more

10-Day Weather Forecast

Advertisements
Track Severe Weather on mobile